sensor_id;sensor_type;location;lat;lon;timestamp;pressure;altitude;pressure_sealevel;temperature;humidity
11440;BME280;5776;51.814;4.510;2023-03-26T00:01:33;100737.00;;;9.90;100.00
11440;BME280;5776;51.814;4.510;2023-03-26T00:04:00;100735.38;;;9.89;100.00
11440;BME280;5776;51.814;4.510;2023-03-26T00:06:29;100731.88;;;9.88;100.00
11440;BME280;5776;51.814;4.510;2023-03-26T00:08:56;100735.66;;;9.87;100.00
11440;BME280;5776;51.814;4.510;2023-03-26T00:11:24;100731.88;;;9.88;100.00
11440;BME280;5776;51.814;4.510;2023-03-26T00:13:51;100725.88;;;9.91;100.00
11440;BME280;5776;51.814;4.510;2023-03-26T00:16:22;100726.66;;;9.92;100.00
11440;BME280;5776;51.814;4.510;2023-03-26T00:18:48;100723.97;;;9.92;100.00
11440;BME280;5776;51.814;4.510;2023-03-26T00:21:17;100716.41;;;9.89;100.00
11440;BME280;5776;51.814;4.510;2023-03-26T00:23:45;100715.59;;;9.88;100.00
11440;BME280;5776;51.814;4.510;2023-03-26T00:26:14;100723.22;;;9.86;100.00
11440;BME280;5776;51.814;4.510;2023-03-26T00:28:42;100720.19;;;9.88;100.00
11440;BME280;5776;51.814;4.510;2023-03-26T00:31:11;100717.19;;;9.89;100.00
11440;BME280;5776;51.814;4.510;2023-03-26T00:33:38;100714.25;;;9.86;100.00
11440;BME280;5776;51.814;4.510;2023-03-26T00:36:07;100709.91;;;9.85;100.00
11440;BME280;5776;51.814;4.510;2023-03-26T00:38:39;100704.50;;;9.85;100.00
11440;BME280;5776;51.814;4.510;2023-03-26T00:41:07;100707.19;;;9.85;100.00
11440;BME280;5776;51.814;4.510;2023-03-26T00:43:44;100702.09;;;9.83;100.00
11440;BME280;5776;51.814;4.510;2023-03-26T00:46:11;100709.13;;;9.84;100.00
11440;BME280;5776;51.814;4.510;2023-03-26T00:48:37;100706.69;;;9.83;100.00
11440;BME280;5776;51.814;4.510;2023-03-26T00:51:05;100699.13;;;9.80;100.00
11440;BME280;5776;51.814;4.510;2023-03-26T00:53:31;100703.97;;;9.83;100.00
11440;BME280;5776;51.814;4.510;2023-03-26T00:55:57;100694.50;;;9.80;100.00
11440;BME280;5776;51.814;4.510;2023-03-26T00:58:26;100693.41;;;9.81;100.00
11440;BME280;5776;51.814;4.510;2023-03-26T01:00:56;100688.28;;;9.80;100.00
11440;BME280;5776;51.814;4.510;2023-03-26T01:03:24;100690.19;;;9.79;100.00
11440;BME280;5776;51.814;4.510;2023-03-26T01:06:01;100680.72;;;9.77;100.00
11440;BME280;5776;51.814;4.510;2023-03-26T01:08:41;100686.41;;;9.75;100.00
11440;BME280;5776;51.814;4.510;2023-03-26T01:11:22;100679.38;;;9.74;100.00
11440;BME280;5776;51.814;4.510;2023-03-26T01:13:53;100680.47;;;9.73;100.00
11440;BME280;5776;51.814;4.510;2023-03-26T01:16:26;100671.81;;;9.71;100.00
11440;BME280;5776;51.814;4.510;2023-03-26T01:18:54;100664.75;;;9.70;100.00
11440;BME280;5776;51.814;4.510;2023-03-26T01:21:26;100655.28;;;9.67;100.00
11440;BME280;5776;51.814;4.510;2023-03-26T01:24:04;100650.97;;;9.66;100.00
11440;BME280;5776;51.814;4.510;2023-03-26T01:29:22;100639.59;;;9.64;100.00
11440;BME280;5776;51.814;4.510;2023-03-26T01:35:38;100639.66;;;9.59;100.00
11440;BME280;5776;51.814;4.510;2023-03-26T01:38:00;100632.09;;;9.56;100.00
11440;BME280;5776;51.814;4.510;2023-03-26T01:45:53;100627.75;;;9.55;100.00
11440;BME280;5776;51.814;4.510;2023-03-26T01:48:28;100629.66;;;9.55;100.00
11440;BME280;5776;51.814;4.510;2023-03-26T01:50:55;100628.34;;;9.52;100.00
11440;BME280;5776;51.814;4.510;2023-03-26T01:53:23;100621.84;;;9.53;100.00
11440;BME280;5776;51.814;4.510;2023-03-26T01:58:59;100602.28;;;9.56;100.00
11440;BME280;5776;51.814;4.510;2023-03-26T02:01:34;100599.03;;;9.54;100.00
11440;BME280;5776;51.814;4.510;2023-03-26T02:04:18;100592.00;;;9.53;100.00
11440;BME280;5776;51.814;4.510;2023-03-26T02:09:50;100589.84;;;9.50;100.00
11440;BME280;5776;51.814;4.510;2023-03-26T02:12:20;100588.25;;;9.49;100.00
11440;BME280;5776;51.814;4.510;2023-03-26T02:14:46;100582.28;;;9.47;100.00
11440;BME280;5776;51.814;4.510;2023-03-26T02:17:12;100574.75;;;9.44;100.00
11440;BME280;5776;51.814;4.510;2023-03-26T02:19:38;100565.81;;;9.43;100.00
11440;BME280;5776;51.814;4.510;2023-03-26T02:22:11;100573.13;;;9.43;100.00
11440;BME280;5776;51.814;4.510;2023-03-26T02:24:41;100564.75;;;9.39;100.00
11440;BME280;5776;51.814;4.510;2023-03-26T02:27:07;100564.47;;;9.41;100.00
11440;BME280;5776;51.814;4.510;2023-03-26T02:29:35;100561.25;;;9.39;100.00
11440;BME280;5776;51.814;4.510;2023-03-26T02:32:10;100566.66;;;9.39;100.00
11440;BME280;5776;51.814;4.510;2023-03-26T02:34:40;100563.44;;;9.37;100.00
11440;BME280;5776;51.814;4.510;2023-03-26T02:37:06;100559.91;;;9.36;100.00
11440;BME280;5776;51.814;4.510;2023-03-26T02:39:32;100553.16;;;9.34;100.00
11440;BME280;5776;51.814;4.510;2023-03-26T02:41:58;100551.53;;;9.33;100.00
11440;BME280;5776;51.814;4.510;2023-03-26T02:44:24;100550.72;;;9.32;100.00
11440;BME280;5776;51.814;4.510;2023-03-26T02:46:50;100550.16;;;9.35;100.00
11440;BME280;5776;51.814;4.510;2023-03-26T02:49:16;100548.53;;;9.34;100.00
11440;BME280;5776;51.814;4.510;2023-03-26T02:51:42;100540.69;;;9.33;100.00
11440;BME280;5776;51.814;4.510;2023-03-26T02:54:08;100539.88;;;9.32;100.00
11440;BME280;5776;51.814;4.510;2023-03-26T02:56:34;100537.97;;;9.33;100.00
11440;BME280;5776;51.814;4.510;2023-03-26T02:59:00;100533.41;;;9.33;100.00
11440;BME280;5776;51.814;4.510;2023-03-26T03:01:26;100524.44;;;9.33;100.00
11440;BME280;5776;51.814;4.510;2023-03-26T03:03:55;100514.16;;;9.29;100.00
11440;BME280;5776;51.814;4.510;2023-03-26T03:06:21;100514.97;;;9.30;100.00
11440;BME280;5776;51.814;4.510;2023-03-26T03:08:47;100516.31;;;9.33;100.00
11440;BME280;5776;51.814;4.510;2023-03-26T03:11:19;100510.06;;;9.32;100.00
11440;BME280;5776;51.814;4.510;2023-03-26T03:13:50;100514.69;;;9.32;100.00
11440;BME280;5776;51.814;4.510;2023-03-26T03:16:16;100505.25;;;9.29;100.00
11440;BME280;5776;51.814;4.510;2023-03-26T03:18:42;100498.22;;;9.28;100.00
11440;BME280;5776;51.814;4.510;2023-03-26T03:21:08;100490.59;;;9.30;100.00
11440;BME280;5776;51.814;4.510;2023-03-26T03:23:33;100487.06;;;9.29;100.00
11440;BME280;5776;51.814;4.510;2023-03-26T03:26:00;100487.88;;;9.30;100.00
11440;BME280;5776;51.814;4.510;2023-03-26T03:28:27;100485.69;;;9.32;100.00
11440;BME280;5776;51.814;4.510;2023-03-26T03:30:53;100480.84;;;9.29;100.00
11440;BME280;5776;51.814;4.510;2023-03-26T03:33:22;100476.75;;;9.32;100.00
11440;BME280;5776;51.814;4.510;2023-03-26T03:35:49;100474.63;;;9.28;100.00
11440;BME280;5776;51.814;4.510;2023-03-26T03:38:16;100476.22;;;9.29;100.00
11440;BME280;5776;51.814;4.510;2023-03-26T03:40:42;100469.22;;;9.28;100.00
11440;BME280;5776;51.814;4.510;2023-03-26T03:43:08;100461.88;;;9.29;100.00
11440;BME280;5776;51.814;4.510;2023-03-26T03:45:34;100457.25;;;9.29;100.00
11440;BME280;5776;51.814;4.510;2023-03-26T03:48:01;100455.13;;;9.26;100.00
11440;BME280;5776;51.814;4.510;2023-03-26T03:50:27;100451.31;;;9.27;100.00
11440;BME280;5776;51.814;4.510;2023-03-26T03:52:53;100445.91;;;9.27;100.00
11440;BME280;5776;51.814;4.510;2023-03-26T03:55:20;100447.81;;;9.27;100.00
11440;BME280;5776;51.814;4.510;2023-03-26T03:57:48;100444.03;;;9.28;100.00
11440;BME280;5776;51.814;4.510;2023-03-26T04:00:16;100442.69;;;9.25;100.00
11440;BME280;5776;51.814;4.510;2023-03-26T04:02:42;100436.44;;;9.25;100.00
11440;BME280;5776;51.814;4.510;2023-03-26T04:05:11;100433.47;;;9.26;100.00
11440;BME280;5776;51.814;4.510;2023-03-26T04:07:37;100429.63;;;9.27;100.00
11440;BME280;5776;51.814;4.510;2023-03-26T04:10:05;100424.53;;;9.26;100.00
11440;BME280;5776;51.814;4.510;2023-03-26T04:12:31;100424.81;;;9.24;100.00
11440;BME280;5776;51.814;4.510;2023-03-26T04:14:58;100418.84;;;9.22;100.00
11440;BME280;5776;51.814;4.510;2023-03-26T04:17:24;100406.94;;;9.23;100.00
11440;BME280;5776;51.814;4.510;2023-03-26T04:19:50;100403.19;;;9.19;100.00
11440;BME280;5776;51.814;4.510;2023-03-26T04:22:20;100412.91;;;9.20;100.00
11440;BME280;5776;51.814;4.510;2023-03-26T04:24:46;100402.06;;;9.20;100.00
11440;BME280;5776;51.814;4.510;2023-03-26T04:27:18;100402.06;;;9.20;100.00
11440;BME280;5776;51.814;4.510;2023-03-26T04:29:47;100392.88;;;9.21;100.00
11440;BME280;5776;51.814;4.510;2023-03-26T04:32:25;100395.06;;;9.19;100.00
11440;BME280;5776;51.814;4.510;2023-03-26T04:34:57;100380.41;;;9.20;100.00
11440;BME280;5776;51.814;4.510;2023-03-26T04:37:31;100378.00;;;9.19;100.00
11440;BME280;5776;51.814;4.510;2023-03-26T04:40:02;100373.66;;;9.18;100.00
11440;BME280;5776;51.814;4.510;2023-03-26T04:42:36;100370.94;;;9.18;100.00
11440;BME280;5776;51.814;4.510;2023-03-26T04:45:07;100366.63;;;9.17;100.00
11440;BME280;5776;51.814;4.510;2023-03-26T04:47:33;100362.09;;;9.12;100.00
11440;BME280;5776;51.814;4.510;2023-03-26T04:50:08;100358.28;;;9.13;100.00
11440;BME280;5776;51.814;4.510;2023-03-26T04:52:35;100349.06;;;9.14;100.00
11440;BME280;5776;51.814;4.510;2023-03-26T04:55:03;100348.53;;;9.12;100.00
11440;BME280;5776;51.814;4.510;2023-03-26T04:57:38;100349.66;;;9.11;100.00
11440;BME280;5776;51.814;4.510;2023-03-26T05:00:10;100344.22;;;9.11;100.00
11440;BME280;5776;51.814;4.510;2023-03-26T05:02:43;100331.75;;;9.10;100.00
11440;BME280;5776;51.814;4.510;2023-03-26T05:05:10;100334.47;;;9.10;100.00
11440;BME280;5776;51.814;4.510;2023-03-26T05:07:36;100335.31;;;9.11;100.00
11440;BME280;5776;51.814;4.510;2023-03-26T05:10:03;100334.47;;;9.10;100.00
11440;BME280;5776;51.814;4.510;2023-03-26T05:12:30;100332.88;;;9.09;100.00
11440;BME280;5776;51.814;4.510;2023-03-26T05:14:56;100320.44;;;9.08;100.00
11440;BME280;5776;51.814;4.510;2023-03-26T05:17:23;100320.72;;;9.06;100.00
11440;BME280;5776;51.814;4.510;2023-03-26T05:19:49;100330.75;;;9.06;100.00
11440;BME280;5776;51.814;4.510;2023-03-26T05:22:17;100320.19;;;9.04;100.00
11440;BME280;5776;51.814;4.510;2023-03-26T05:24:43;100316.09;;;9.07;100.00
11440;BME280;5776;51.814;4.510;2023-03-26T05:27:15;100308.28;;;9.05;100.00
11440;BME280;5776;51.814;4.510;2023-03-26T05:29:42;100310.47;;;9.03;100.00
11440;BME280;5776;51.814;4.510;2023-03-26T05:32:08;100314.56;;;9.01;100.00
11440;BME280;5776;51.814;4.510;2023-03-26T05:34:35;100311.84;;;9.01;100.00
11440;BME280;5776;51.814;4.510;2023-03-26T05:37:03;100309.16;;;9.01;100.00
11440;BME280;5776;51.814;4.510;2023-03-26T05:39:29;100305.63;;;9.00;100.00
11440;BME280;5776;51.814;4.510;2023-03-26T05:41:55;100305.31;;;9.02;100.00
11440;BME280;5776;51.814;4.510;2023-03-26T05:44:21;100299.91;;;9.02;100.00
11440;BME280;5776;51.814;4.510;2023-03-26T05:46:47;100297.19;;;9.02;100.00
11440;BME280;5776;51.814;4.510;2023-03-26T05:49:13;100295.28;;;9.02;100.00
11440;BME280;5776;51.814;4.510;2023-03-26T05:51:39;100298.31;;;9.01;100.00
11440;BME280;5776;51.814;4.510;2023-03-26T05:54:05;100292.59;;;9.02;100.00
11440;BME280;5776;51.814;4.510;2023-03-26T05:56:31;100300.69;;;9.02;100.00
11440;BME280;5776;51.814;4.510;2023-03-26T05:58:57;100299.63;;;9.03;100.00
11440;BME280;5776;51.814;4.510;2023-03-26T06:01:23;100302.03;;;9.05;100.00
11440;BME280;5776;51.814;4.510;2023-03-26T06:03:50;100293.91;;;9.05;100.00
11440;BME280;5776;51.814;4.510;2023-03-26T06:06:19;100303.34;;;9.07;100.00
11440;BME280;5776;51.814;4.510;2023-03-26T06:08:48;100293.09;;;9.04;100.00
11440;BME280;5776;51.814;4.510;2023-03-26T06:11:16;100292.81;;;9.06;100.00
11440;BME280;5776;51.814;4.510;2023-03-26T06:13:43;100283.44;;;9.17;100.00
11440;BME280;5776;51.814;4.510;2023-03-26T06:16:10;100288.72;;;9.27;100.00
11440;BME280;5776;51.814;4.510;2023-03-26T06:18:37;100284.94;;;9.28;100.00
11440;BME280;5776;51.814;4.510;2023-03-26T06:21:03;100276.22;;;9.32;100.00
11440;BME280;5776;51.814;4.510;2023-03-26T06:23:29;100268.59;;;9.34;100.00
11440;BME280;5776;51.814;4.510;2023-03-26T06:25:55;100275.63;;;9.35;100.00
11440;BME280;5776;51.814;4.510;2023-03-26T06:28:22;100277.25;;;9.36;100.00
11440;BME280;5776;51.814;4.510;2023-03-26T06:30:48;100269.91;;;9.36;100.00
11440;BME280;5776;51.814;4.510;2023-03-26T06:33:14;100266.41;;;9.36;100.00
11440;BME280;5776;51.814;4.510;2023-03-26T06:35:41;100263.69;;;9.36;100.00
11440;BME280;5776;51.814;4.510;2023-03-26T06:38:08;100258.28;;;9.36;100.00
11440;BME280;5776;51.814;4.510;2023-03-26T06:40:34;100262.88;;;9.35;100.00
11440;BME280;5776;51.814;4.510;2023-03-26T06:43:00;100269.13;;;9.36;100.00
11440;BME280;5776;51.814;4.510;2023-03-26T06:45:27;100252.84;;;9.36;100.00
11440;BME280;5776;51.814;4.510;2023-03-26T06:47:53;100260.47;;;9.34;100.00
11440;BME280;5776;51.814;4.510;2023-03-26T06:50:19;100268.97;;;9.27;100.00
11440;BME280;5776;51.814;4.510;2023-03-26T06:52:45;100261.19;;;9.20;100.00
11440;BME280;5776;51.814;4.510;2023-03-26T06:55:12;100257.16;;;9.18;100.00
11440;BME280;5776;51.814;4.510;2023-03-26T06:57:38;100255.34;;;9.13;100.00
11440;BME280;5776;51.814;4.510;2023-03-26T07:00:05;100249.94;;;9.13;100.00
11440;BME280;5776;51.814;4.510;2023-03-26T07:02:31;100252.91;;;9.12;100.00
11440;BME280;5776;51.814;4.510;2023-03-26T07:04:57;100248.88;;;9.09;100.00
11440;BME280;5776;51.814;4.510;2023-03-26T07:07:23;100251.31;;;9.11;100.00
11440;BME280;5776;51.814;4.510;2023-03-26T07:09:49;100250.50;;;9.10;100.00
11440;BME280;5776;51.814;4.510;2023-03-26T07:12:16;100247.50;;;9.12;100.00
11440;BME280;5776;51.814;4.510;2023-03-26T07:14:42;100249.41;;;9.11;100.00
11440;BME280;5776;51.814;4.510;2023-03-26T07:17:08;100246.69;;;9.11;100.00
11440;BME280;5776;51.814;4.510;2023-03-26T07:19:34;100242.88;;;9.12;100.00
11440;BME280;5776;51.814;4.510;2023-03-26T07:22:00;100244.00;;;9.11;100.00
11440;BME280;5776;51.814;4.510;2023-03-26T07:24:27;100235.72;;;9.21;100.00
11440;BME280;5776;51.814;4.510;2023-03-26T07:27:08;100237.75;;;9.29;100.00
11440;BME280;5776;51.814;4.510;2023-03-26T07:29:45;100241.78;;;9.32;100.00
11440;BME280;5776;51.814;4.510;2023-03-26T07:32:25;100236.06;;;9.34;100.00
11440;BME280;5776;51.814;4.510;2023-03-26T07:35:07;100240.38;;;9.35;100.00
11440;BME280;5776;51.814;4.510;2023-03-26T07:46:31;100249.03;;;9.37;100.00
11440;BME280;5776;51.814;4.510;2023-03-26T07:48:59;100239.78;;;9.38;100.00
11440;BME280;5776;51.814;4.510;2023-03-26T07:51:27;100241.41;;;9.39;100.00
11440;BME280;5776;51.814;4.510;2023-03-26T07:53:53;100240.31;;;9.40;100.00
11440;BME280;5776;51.814;4.510;2023-03-26T08:07:43;100241.94;;;9.41;100.00
11440;BME280;5776;51.814;4.510;2023-03-26T08:10:25;100236.53;;;9.41;100.00
11440;BME280;5776;51.814;4.510;2023-03-26T08:16:01;100243.81;;;9.40;100.00
11440;BME280;5776;51.814;4.510;2023-03-26T08:18:43;100235.69;;;9.40;100.00
11440;BME280;5776;51.814;4.510;2023-03-26T08:21:17;100239.22;;;9.41;100.00
11440;BME280;5776;51.814;4.510;2023-03-26T08:24:19;100238.13;;;9.42;100.00
11440;BME280;5776;51.814;4.510;2023-03-26T08:29:28;100245.13;;;9.43;100.00
11440;BME280;5776;51.814;4.510;2023-03-26T08:32:00;100235.41;;;9.42;100.00
11440;BME280;5776;51.814;4.510;2023-03-26T08:34:28;100237.00;;;9.43;100.00
11440;BME280;5776;51.814;4.510;2023-03-26T08:36:54;100235.91;;;9.44;100.00
11440;BME280;5776;51.814;4.510;2023-03-26T08:39:20;100240.22;;;9.45;100.00
11440;BME280;5776;51.814;4.510;2023-03-26T08:50:19;100238.84;;;9.47;100.00
11440;BME280;5776;51.814;4.510;2023-03-26T09:06:27;100229.09;;;9.46;100.00
11440;BME280;5776;51.814;4.510;2023-03-26T09:31:59;100239.34;;;9.49;100.00
11440;BME280;5776;51.814;4.510;2023-03-26T09:34:28;100237.44;;;9.50;100.00
11440;BME280;5776;51.814;4.510;2023-03-26T09:37:22;100242.06;;;9.49;100.00
11440;BME280;5776;51.814;4.510;2023-03-26T09:40:00;100244.50;;;9.51;100.00
11440;BME280;5776;51.814;4.510;2023-03-26T09:43:13;100246.09;;;9.52;100.00
11440;BME280;5776;51.814;4.510;2023-03-26T09:46:33;100243.38;;;9.52;100.00
11440;BME280;5776;51.814;4.510;2023-03-26T09:53:52;100250.13;;;9.55;100.00
11440;BME280;5776;51.814;4.510;2023-03-26T09:56:46;100256.34;;;9.55;100.00
11440;BME280;5776;51.814;4.510;2023-03-26T09:59:41;100253.13;;;9.53;100.00
11440;BME280;5776;51.814;4.510;2023-03-26T10:02:28;100261.75;;;9.55;100.00
11440;BME280;5776;51.814;4.510;2023-03-26T10:08:24;100260.69;;;9.56;100.00
11440;BME280;5776;51.814;4.510;2023-03-26T10:31:15;100280.56;;;9.65;100.00
11440;BME280;5776;51.814;4.510;2023-03-26T10:36:42;100287.31;;;9.68;100.00
11440;BME280;5776;51.814;4.510;2023-03-26T10:39:54;100287.03;;;9.69;100.00
11440;BME280;5776;51.814;4.510;2023-03-26T10:42:38;100296.28;;;9.68;100.00
11440;BME280;5776;51.814;4.510;2023-03-26T10:53:12;100297.88;;;9.69;100.00
11440;BME280;5776;51.814;4.510;2023-03-26T10:55:51;100303.28;;;9.69;100.00
11440;BME280;5776;51.814;4.510;2023-03-26T10:58:27;100304.91;;;9.70;100.00
11440;BME280;5776;51.814;4.510;2023-03-26T11:00:58;100316.56;;;9.71;100.00
11440;BME280;5776;51.814;4.510;2023-03-26T11:03:53;100317.38;;;9.71;100.00
11440;BME280;5776;51.814;4.510;2023-03-26T11:06:29;100316.56;;;9.71;100.00
11440;BME280;5776;51.814;4.510;2023-03-26T11:14:55;100329.81;;;9.72;100.00
11440;BME280;5776;51.814;4.510;2023-03-26T11:28:41;100338.47;;;9.74;100.00
11440;BME280;5776;51.814;4.510;2023-03-26T11:31:22;100347.41;;;9.75;100.00
11440;BME280;5776;51.814;4.510;2023-03-26T11:33:59;100348.25;;;9.76;100.00
11440;BME280;5776;51.814;4.510;2023-03-26T11:36:32;100350.94;;;9.76;100.00
11440;BME280;5776;51.814;4.510;2023-03-26T11:39:04;100356.06;;;9.77;100.00
11440;BME280;5776;51.814;4.510;2023-03-26T11:41:33;100357.97;;;9.77;100.00
11440;BME280;5776;51.814;4.510;2023-03-26T11:44:21;100356.06;;;9.77;100.00
11440;BME280;5776;51.814;4.510;2023-03-26T11:46:51;100362.28;;;9.78;100.00
11440;BME280;5776;51.814;4.510;2023-03-26T11:49:24;100358.50;;;9.79;100.00
11440;BME280;5776;51.814;4.510;2023-03-26T11:51:51;100363.91;;;9.79;100.00
11440;BME280;5776;51.814;4.510;2023-03-26T11:54:16;100379.06;;;9.80;100.00
11440;BME280;5776;51.814;4.510;2023-03-26T11:59:51;100381.78;;;9.80;100.00
11440;BME280;5776;51.814;4.510;2023-03-26T12:02:25;100381.50;;;9.81;100.00
11440;BME280;5776;51.814;4.510;2023-03-26T12:07:53;100396.66;;;9.82;100.00
11440;BME280;5776;51.814;4.510;2023-03-26T12:10:34;100397.47;;;9.83;100.00
11440;BME280;5776;51.814;4.510;2023-03-26T12:16:16;100404.53;;;9.84;100.00
11440;BME280;5776;51.814;4.510;2023-03-26T12:18:44;100401.00;;;9.83;100.00
11440;BME280;5776;51.814;4.510;2023-03-26T12:21:17;100410.47;;;9.86;100.00
11440;BME280;5776;51.814;4.510;2023-03-26T12:23:53;100410.75;;;9.84;100.00
11440;BME280;5776;51.814;4.510;2023-03-26T12:26:34;100406.13;;;9.85;100.00
11440;BME280;5776;51.814;4.510;2023-03-26T12:29:09;100414.25;;;9.85;100.00
11440;BME280;5776;51.814;4.510;2023-03-26T12:34:22;100429.44;;;9.86;100.00
11440;BME280;5776;51.814;4.510;2023-03-26T12:36:56;100435.69;;;9.86;100.00
11440;BME280;5776;51.814;4.510;2023-03-26T12:42:00;100449.25;;;9.86;100.00
11440;BME280;5776;51.814;4.510;2023-03-26T12:44:34;100446.53;;;9.86;100.00
11440;BME280;5776;51.814;4.510;2023-03-26T12:49:34;100458.19;;;9.87;100.00
11440;BME280;5776;51.814;4.510;2023-03-26T12:55:18;100459.28;;;9.86;100.00
11440;BME280;5776;51.814;4.510;2023-03-26T12:58:26;100459.28;;;9.86;100.00
11440;BME280;5776;51.814;4.510;2023-03-26T13:01:17;100464.66;;;9.91;100.00
11440;BME280;5776;51.814;4.510;2023-03-26T13:09:32;100473.28;;;9.93;100.00
11440;BME280;5776;51.814;4.510;2023-03-26T13:12:23;100475.50;;;9.91;100.00
11440;BME280;5776;51.814;4.510;2023-03-26T13:23:23;100481.34;;;9.79;100.00
11440;BME280;5776;51.814;4.510;2023-03-26T13:31:44;100489.84;;;9.91;100.00
11440;BME280;5776;51.814;4.510;2023-03-26T13:34:25;100489.06;;;9.91;100.00
11440;BME280;5776;51.814;4.510;2023-03-26T13:43:11;100502.03;;;9.94;100.00
11440;BME280;5776;51.814;4.510;2023-03-26T13:47:58;100507.97;;;9.96;100.00
11440;BME280;5776;51.814;4.510;2023-03-26T13:50:40;100519.91;;;9.95;100.00
11440;BME280;5776;51.814;4.510;2023-03-26T13:53:21;100518.81;;;9.96;100.00
11440;BME280;5776;51.814;4.510;2023-03-26T13:55:58;100523.16;;;9.97;100.00
11440;BME280;5776;51.814;4.510;2023-03-26T13:58:34;100524.25;;;9.96;100.00
11440;BME280;5776;51.814;4.510;2023-03-26T14:01:08;100531.56;;;9.95;100.00
11440;BME280;5776;51.814;4.510;2023-03-26T14:09:52;100547.41;;;9.64;100.00
11440;BME280;5776;51.814;4.510;2023-03-26T14:15:02;100547.75;;;9.58;100.00
11440;BME280;5776;51.814;4.510;2023-03-26T14:26:21;100553.63;;;9.89;100.00
11440;BME280;5776;51.814;4.510;2023-03-26T14:54:16;100592.88;;;9.97;100.00
11440;BME280;5776;51.814;4.510;2023-03-26T15:08:49;100612.41;;;9.99;100.00
11440;BME280;5776;51.814;4.510;2023-03-26T15:15:12;100622.41;;;9.98;100.00
11440;BME280;5776;51.814;4.510;2023-03-26T15:21:06;100643.84;;;10.00;100.00
11440;BME280;5776;51.814;4.510;2023-03-26T15:26:52;100657.41;;;10.00;100.00
11440;BME280;5776;51.814;4.510;2023-03-26T15:29:52;100658.78;;;9.97;100.00
11440;BME280;5776;51.814;4.510;2023-03-26T15:32:43;100665.81;;;9.98;100.00
11440;BME280;5776;51.814;4.510;2023-03-26T15:35:34;100682.09;;;9.98;100.00
11440;BME280;5776;51.814;4.510;2023-03-26T15:46:47;100696.78;;;9.97;100.00
11440;BME280;5776;51.814;4.510;2023-03-26T15:49:34;100714.66;;;9.98;100.00
11440;BME280;5776;51.814;4.510;2023-03-26T15:55:08;100729.59;;;10.01;100.00
11440;BME280;5776;51.814;4.510;2023-03-26T16:00:28;100734.47;;;9.99;100.00
11440;BME280;5776;51.814;4.510;2023-03-26T16:11:12;100752.56;;;10.08;100.00
11440;BME280;5776;51.814;4.510;2023-03-26T16:45:36;100824.78;;;10.04;100.00
11440;BME280;5776;51.814;4.510;2023-03-26T16:48:31;100832.13;;;10.04;100.00
11440;BME280;5776;51.814;4.510;2023-03-26T16:51:16;100840.84;;;10.01;100.00
11440;BME280;5776;51.814;4.510;2023-03-26T16:53:55;100843.53;;;10.01;100.00
11440;BME280;5776;51.814;4.510;2023-03-26T17:02:43;100874.22;;;9.96;100.00
11440;BME280;5776;51.814;4.510;2023-03-26T17:05:24;100879.94;;;9.94;100.00
11440;BME280;5776;51.814;4.510;2023-03-26T17:08:18;100883.22;;;9.91;100.00
11440;BME280;5776;51.814;4.510;2023-03-26T17:13:43;100895.72;;;9.87;100.00
11440;BME280;5776;51.814;4.510;2023-03-26T17:19:28;100899.00;;;9.84;100.00
11440;BME280;5776;51.814;4.510;2023-03-26T17:22:02;100914.47;;;9.84;100.00
11440;BME280;5776;51.814;4.510;2023-03-26T17:27:29;100925.31;;;9.84;100.00
11440;BME280;5776;51.814;4.510;2023-03-26T17:40:55;100963.06;;;9.75;100.00
11440;BME280;5776;51.814;4.510;2023-03-26T17:43:42;100969.31;;;9.70;100.00
11440;BME280;5776;51.814;4.510;2023-03-26T17:54:36;100996.44;;;9.65;100.00
11440;BME280;5776;51.814;4.510;2023-03-26T17:57:12;100999.16;;;9.65;100.00
11440;BME280;5776;51.814;4.510;2023-03-26T17:59:40;101006.78;;;9.63;100.00
11440;BME280;5776;51.814;4.510;2023-03-26T18:02:14;101018.16;;;9.60;100.00
11440;BME280;5776;51.814;4.510;2023-03-26T18:04:43;101027.41;;;9.59;100.00
11440;BME280;5776;51.814;4.510;2023-03-26T18:07:16;101037.16;;;9.60;100.00
11440;BME280;5776;51.814;4.510;2023-03-26T18:12:56;101049.91;;;9.60;100.00
11440;BME280;5776;51.814;4.510;2023-03-26T18:15:47;101055.09;;;9.56;100.00
11440;BME280;5776;51.814;4.510;2023-03-26T18:18:29;101064.81;;;9.57;100.00
11440;BME280;5776;51.814;4.510;2023-03-26T18:20:57;101075.69;;;9.52;100.00
11440;BME280;5776;51.814;4.510;2023-03-26T18:23:36;101064.84;;;9.52;100.00
11440;BME280;5776;51.814;4.510;2023-03-26T18:26:20;101084.63;;;9.52;100.00
11440;BME280;5776;51.814;4.510;2023-03-26T18:28:52;101080.56;;;9.50;100.00
11440;BME280;5776;51.814;4.510;2023-03-26T18:31:23;101090.06;;;9.47;100.00
11440;BME280;5776;51.814;4.510;2023-03-26T18:33:55;101090.88;;;9.48;100.00
11440;BME280;5776;51.814;4.510;2023-03-26T18:36:26;101107.13;;;9.48;100.00
11440;BME280;5776;51.814;4.510;2023-03-26T18:38:57;101101.47;;;9.44;100.00
11440;BME280;5776;51.814;4.510;2023-03-26T18:41:29;101105.78;;;9.45;100.00
11440;BME280;5776;51.814;4.510;2023-03-26T18:44:03;101111.50;;;9.44;100.00
11440;BME280;5776;51.814;4.510;2023-03-26T18:46:31;101120.44;;;9.39;100.00
11440;BME280;5776;51.814;4.510;2023-03-26T18:49:00;101131.03;;;9.36;100.00
11440;BME280;5776;51.814;4.510;2023-03-26T18:51:28;101130.75;;;9.37;100.00
11440;BME280;5776;51.814;4.510;2023-03-26T18:53:56;101140.22;;;9.35;100.00
11440;BME280;5776;51.814;4.510;2023-03-26T18:56:30;101143.50;;;9.32;100.00
11440;BME280;5776;51.814;4.510;2023-03-26T18:59:00;101151.38;;;9.33;100.00
11440;BME280;5776;51.814;4.510;2023-03-26T19:01:29;101153.78;;;9.35;100.00
11440;BME280;5776;51.814;4.510;2023-03-26T19:04:02;101162.47;;;9.32;100.00
11440;BME280;5776;51.814;4.510;2023-03-26T19:06:31;101166.78;;;9.33;100.00
11440;BME280;5776;51.814;4.510;2023-03-26T19:09:02;101169.50;;;9.33;100.00
11440;BME280;5776;51.814;4.510;2023-03-26T19:11:31;101170.84;;;9.30;100.00
11440;BME280;5776;51.814;4.510;2023-03-26T19:14:04;101176.03;;;9.32;100.00
11440;BME280;5776;51.814;4.510;2023-03-26T19:16:32;101182.53;;;9.30;100.00